Terminal Aerodrome Forecast
Issued by NWS Boston, MA

Home | Current Version | Previous Version | Text Only | Print | Product List | Glossary On
Versions: 1 2 3 4 5 6 7 8 9 10 11 12 13 14 15 16 17 18 19 20 21 22 23 24 25 26 27 28 29 30 31 32 33 34 35 36 37 38 39 40 41 42 43 44 45 46 47
000
FTUS41 KBOX 070532
TAFBOS
TAF
KBOS 070532Z 0706/0812 23010KT P6SM SCT250
     FM071300 25006KT P6SM SCT090 SCT250
     FM071600 00000KT P6SM FEW250
     FM072000 06006KT P6SM BKN200
     FM080300 06011KT P6SM BKN200
     FM080500 07014KT P6SM BKN015
     FM081100 07015G22KT P6SM OVC010=

USA.gov is the U.S. government's official web portal to all federal, state and local government web resources and services.